createdAt,value
2018-06-28T19:45:01.980Z,29.30
2018-06-28T19:47:30.339Z,31.50
2018-06-28T19:50:04.095Z,30.50
2018-06-28T19:52:37.824Z,30.00
2018-06-28T19:55:06.303Z,29.70
2018-06-28T19:57:34.726Z,29.40
2018-06-28T20:00:03.412Z,29.20
2018-06-28T20:02:36.995Z,29.10
2018-06-28T20:05:05.551Z,29.00
2018-06-28T20:07:33.870Z,28.90
2018-06-28T20:10:02.608Z,28.80
2018-06-28T20:12:36.888Z,28.80
2018-06-28T20:15:10.828Z,28.70
2018-06-28T20:17:54.794Z,28.80
2018-06-28T20:20:26.250Z,28.80
2018-06-28T20:22:54.872Z,28.80
2018-06-28T20:25:23.365Z,28.80
2018-06-28T20:27:57.108Z,28.80
2018-06-28T20:30:30.840Z,28.80
2018-06-28T20:33:04.594Z,28.80
2018-06-28T20:35:32.965Z,28.80
2018-06-28T20:38:01.423Z,28.80
2018-06-28T20:40:29.723Z,28.90
2018-06-28T20:42:58.420Z,29.00
2018-06-28T20:45:26.893Z,29.00
2018-06-28T20:47:55.653Z,29.10
2018-06-28T20:50:24.241Z,29.10
2018-06-28T20:52:54.207Z,29.20
2018-06-28T20:55:22.757Z,29.30
2018-06-28T20:57:51.449Z,29.30
2018-06-28T21:00:19.934Z,29.30
2018-06-28T21:02:48.352Z,29.40
2018-06-28T21:05:16.696Z,29.50
2018-06-28T21:07:44.995Z,29.50
2018-06-28T21:10:13.321Z,29.50
2018-06-28T21:12:41.743Z,29.60
2018-06-28T21:15:10.170Z,29.60
2018-06-28T21:17:38.536Z,29.70
2018-06-28T21:20:06.874Z,29.80
2018-06-28T21:22:35.283Z,29.80
2018-06-28T21:25:03.947Z,29.80
2018-06-28T21:27:32.318Z,29.90
2018-06-28T21:30:00.717Z,30.00
2018-06-28T21:32:29.267Z,30.00
2018-06-28T21:34:58.298Z,30.00
2018-06-28T21:37:27.788Z,30.00
2018-06-28T21:39:57.176Z,30.10
2018-06-28T21:42:25.676Z,30.20
2018-06-28T21:44:54.630Z,30.20
2018-06-28T21:47:23.492Z,30.30
2018-06-28T21:49:52.118Z,30.30
2018-06-28T21:52:20.544Z,30.40
2018-06-28T21:54:49.361Z,30.40
2018-06-28T21:57:19.388Z,30.50
2018-06-28T21:59:50.033Z,30.50
2018-06-28T22:02:21.543Z,30.50
2018-06-28T22:07:18.615Z,30.70
2018-06-28T22:09:46.979Z,30.80
2018-06-28T22:12:16.728Z,30.80
2018-06-28T22:14:46.166Z,30.80
2018-06-28T22:17:16.909Z,30.90
2018-06-28T22:19:45.354Z,30.90
2018-06-28T22:22:13.685Z,30.80
2018-06-28T22:24:42.125Z,31.00
2018-06-28T22:27:10.536Z,31.00
2018-06-28T22:29:38.885Z,31.60
2018-06-28T22:32:07.346Z,31.10
2018-06-28T22:34:35.663Z,31.20
2018-06-28T22:37:04.452Z,31.10
2018-06-28T22:39:32.864Z,31.20
2018-06-28T22:42:01.326Z,31.30
2018-06-28T22:44:29.696Z,31.30
2018-06-28T22:46:58.117Z,31.40
2018-06-28T22:49:26.460Z,31.50
2018-06-28T22:51:54.897Z,31.50
2018-06-28T22:54:23.453Z,31.50
2018-06-28T22:56:51.929Z,31.50
2018-06-28T22:59:20.309Z,31.60
2018-06-28T23:01:48.663Z,31.60
2018-06-28T23:04:17.001Z,31.70
2018-06-28T23:06:45.406Z,31.70
2018-06-28T23:09:13.750Z,31.70
2018-06-28T23:11:42.436Z,31.80
2018-06-28T23:14:10.782Z,31.80
2018-06-28T23:16:39.124Z,31.90
2018-06-28T23:19:07.566Z,32.00
2018-06-28T23:21:35.899Z,32.00
2018-06-28T23:24:04.265Z,32.10
2018-06-28T23:26:32.754Z,32.10
2018-06-28T23:29:01.105Z,32.20
2018-06-28T23:31:29.422Z,32.20
2018-06-28T23:33:57.732Z,32.20
2018-06-28T23:36:26.095Z,32.20
2018-06-28T23:38:54.400Z,32.30
2018-06-28T23:41:22.897Z,32.40
2018-06-28T23:43:51.296Z,32.40
2018-06-28T23:46:19.721Z,32.50
2018-06-28T23:48:48.100Z,32.50
2018-06-28T23:51:16.570Z,32.50
2018-06-28T23:53:45.696Z,32.60
2018-06-28T23:56:14.210Z,32.60
2018-06-28T23:58:43.054Z,32.70
